Thunder radar more information blitzortung!


Löydät sääaseman tiedot myös:

European Weather Network

Finland Weather Exchange

Weather Underground

AWEKAS



Weather Underground säähistoriasivu

Päivittäin yhteenveto Syyskuu 26, 2017 Yksiköt:  Englantilaiset    Metriset   Molemmat
« Edellinen Päivä
Seuraava Päivä »
Päivittäin Viikoittain Kuukausittain Vuosittain Mukautettu
  Korkea: Matala: Keskiarvo:
Lämpötila: TemperatureC °F 1.7 °F 8.5 °F
Kastepiste: DewpointC °F 1.3 °F 7.6 °F
Kosteus: Humidity % 84 % 93 %
Tuulen nopeus: WindSpeedKMH mph 0.0 mph 0 mph
Tuulenpuuska: WindSpeedGustKMH mph - -
Tuuli:- - North
Ilmanpaine: PressurehPa in 1039.5 in -
Sade: 0.0 in    
Historical Graphs
 
 
Taulukkotiedot Syyskuu 26, 2017
Aika Lämpötila Kastepiste Ilmanpaine Tuuli Tuulen nopeus Tuulenpuuska Kosteus Sademäärä (tunneittain)
TemperatureC °F DewpointC °F PressurehPa in Calm     Humidity % HourlyPrecipMM in
00:00 6.1 °F 5.5 °F 1039.5 in Calm     96 % 0.0 in
00:15 5.8 °F 5.2 °F 1039.5 in Calm     96 % 0.0 in
00:30 5.6 °F 5.0 °F 1039.8 in Calm     96 % 0.0 in
00:45 5.4 °F 4.9 °F 1039.8 in Calm     96 % 0.0 in
01:00 5.3 °F 4.7 °F 1039.8 in Calm     96 % 0.0 in
01:15 5.1 °F 4.5 °F 1039.8 in Calm     96 % 0.0 in
01:30 4.9 °F 4.3 °F 1039.8 in Calm     96 % 0.0 in
02:00 4.5 °F 3.9 °F 1039.8 in Calm     96 % 0.0 in
02:15 4.4 °F 3.9 °F 1039.8 in Calm     96 % 0.0 in
02:30 4.2 °F 3.6 °F 1039.8 in Calm     96 % 0.0 in
02:45 4.1 °F 3.5 °F 1039.8 in Calm     96 % 0.0 in
03:00 4.0 °F 3.4 °F 1039.8 in Calm     96 % 0.0 in
03:15 3.9 °F 3.4 °F 1040.2 in Calm     96 % 0.0 in
03:30 3.8 °F 3.2 °F 1040.2 in Calm     96 % 0.0 in
03:45 3.6 °F 3.0 °F 1039.8 in Calm     96 % 0.0 in
04:00 3.4 °F 2.8 °F 1039.8 in Calm     96 % 0.0 in
04:15 3.3 °F 2.8 °F 1040.2 in Calm     96 % 0.0 in
04:30 3.2 °F 2.8 °F 1040.2 in Calm     97 % 0.0 in
04:45 3.2 °F 2.7 °F 1040.2 in Calm     97 % 0.0 in
05:00 3.2 °F 2.7 °F 1040.2 in Calm     97 % 0.0 in
05:15 3.0 °F 2.6 °F 1040.2 in Calm     97 % 0.0 in
05:45 2.6 °F 2.0 °F 1040.2 in Calm     96 % 0.0 in
06:00 2.5 °F 2.1 °F 1040.2 in Calm     97 % 0.0 in
06:30 2.2 °F 1.7 °F 1039.8 in Calm     97 % 0.0 in
06:45 2.0 °F 1.4 °F 1040.2 in Calm     96 % 0.0 in
07:00 1.9 °F 1.5 °F 1040.2 in Calm     97 % 0.0 in
07:15 1.8 °F 1.4 °F 1040.2 in Calm     97 % 0.0 in
07:30 1.7 °F 1.3 °F 1040.2 in Calm     97 % 0.0 in
07:45 1.7 °F 1.3 °F 1040.2 in Calm     97 % 0.0 in
08:00 1.7 °F 1.3 °F 1040.2 in Calm     97 % 0.0 in
08:15 1.8 °F 1.4 °F 1040.2 in Calm     97 % 0.0 in
08:30 1.8 °F 1.4 °F 1040.2 in Calm     97 % 0.0 in
08:45 1.9 °F 1.5 °F 1040.2 in Calm     97 % 0.0 in
09:00 2.2 °F 1.7 °F 1040.2 in Calm     97 % 0.0 in
09:15 2.7 °F 2.2 °F 1040.2 in Calm     97 % 0.0 in
09:30 3.0 °F 2.7 °F 1040.5 in Calm     98 % 0.0 in
09:45 3.3 °F 3.0 °F 1040.5 in Calm     98 % 0.0 in
10:00 3.8 °F 3.5 °F 1040.5 in Calm     98 % 0.0 in
10:15 4.8 °F 4.5 °F 1040.5 in Calm     98 % 0.0 in
10:30 5.7 °F 5.4 °F 1040.5 in Calm     98 % 0.0 in
10:45 6.3 °F 6.0 °F 1040.5 in Calm     98 % 0.0 in
11:00 6.8 °F 6.5 °F 1040.5 in Calm     98 % 0.0 in
11:15 7.4 °F 7.1 °F 1040.5 in Calm     98 % 0.0 in
11:30 8.2 °F 7.9 °F 1040.5 in Calm     98 % 0.0 in
11:45 8.8 °F 8.5 °F 1040.5 in Calm     98 % 0.0 in
12:00 9.5 °F 9.2 °F 1040.5 in Calm     98 % 0.0 in
12:15 10.2 °F 9.9 °F 1040.5 in Calm     98 % 0.0 in
12:30 10.8 °F 10.5 °F 1040.5 in Calm     98 % 0.0 in
12:45 11.4 °F 11.1 °F 1040.5 in Calm     98 % 0.0 in
13:00 11.9 °F 11.6 °F 1040.5 in Calm     98 % 0.0 in
13:15 12.9 °F 12.2 °F 1040.5 in Calm     95 % 0.0 in
13:30 13.7 °F 12.2 °F 1040.5 in Calm   1.6 mph 91 % 0.0 in
13:45 14.0 °F 12.4 °F 1040.5 in Calm     90 % 0.0 in
14:00 14.3 °F 12.7 °F 1040.5 in Calm     90 % 0.0 in
14:15 14.6 °F 12.8 °F 1040.2 in Calm     89 % 0.0 in
14:30 14.8 °F 12.8 °F 1040.2 in Calm     88 % 0.0 in
14:45 15.1 °F 13.1 °F 1040.2 in Calm     88 % 0.0 in
15:00 15.4 °F 13.5 °F 1040.2 in Calm     88 % 0.0 in
15:15 15.9 °F 13.7 °F 1040.2 in Calm     87 % 0.0 in
15:30 16.1 °F 13.7 °F 1039.8 in Calm     86 % 0.0 in
15:45 16.1 °F 13.6 °F 1039.8 in Calm     85 % 0.0 in
16:00 16.1 °F 13.5 °F 1039.8 in Calm     85 % 0.0 in
16:15 16.1 °F 13.9 °F 1039.8 in Calm     87 % 0.0 in
16:30 16.3 °F 13.8 °F 1039.8 in Calm     85 % 0.0 in
16:45 16.6 °F 14.0 °F 1039.5 in Calm     85 % 0.0 in
17:00 16.8 °F 14.1 °F 1039.5 in Calm     84 % 0.0 in
17:15 16.7 °F 13.9 °F 1039.5 in Calm     84 % 0.0 in
17:30 16.4 °F 13.7 °F 1039.5 in Calm     84 % 0.0 in
17:45 16.1 °F 13.8 °F 1039.5 in Calm     86 % 0.0 in
18:00 15.8 °F 13.5 °F 1039.8 in Calm     86 % 0.0 in
18:15 15.6 °F 13.6 °F 1039.8 in Calm     88 % 0.0 in
18:30 15.2 °F 13.4 °F 1039.8 in Calm     89 % 0.0 in
19:00 14.2 °F 12.9 °F 1039.8 in Calm     92 % 0.0 in
19:15 13.7 °F 12.6 °F 1039.8 in Calm     93 % 0.0 in
19:30 13.2 °F 12.2 °F 1039.8 in Calm     94 % 0.0 in
19:45 12.7 °F 11.7 °F 1039.8 in Calm     94 % 0.0 in
20:00 12.2 °F 11.3 °F 1039.8 in Calm     94 % 0.0 in
20:15 11.8 °F 11.1 °F 1039.8 in Calm     95 % 0.0 in
20:30 11.4 °F 10.7 °F 1039.8 in Calm     95 % 0.0 in
20:45 11.0 °F 10.2 °F 1039.8 in Calm     95 % 0.0 in
21:00 10.7 °F 10.0 °F 1040.2 in Calm     95 % 0.0 in
21:15 10.4 °F 9.8 °F 1040.2 in Calm     96 % 0.0 in
21:30 10.4 °F 9.8 °F 1040.2 in Calm     96 % 0.0 in
21:45 10.2 °F 9.6 °F 1040.5 in Calm     96 % 0.0 in
22:00 10.3 °F 9.8 °F 1040.5 in Calm     97 % 0.0 in
22:15 10.0 °F 9.4 °F 1040.5 in Calm     96 % 0.0 in
22:45 10.1 °F 9.6 °F 1040.5 in Calm     97 % 0.0 in
23:00 9.9 °F 9.4 °F 1040.5 in Calm     97 % 0.0 in
23:15 9.8 °F 9.3 °F 1040.5 in Calm     97 % 0.0 in
23:45 9.5 °F 9.0 °F 1040.5 in Calm     97 % 0.0 in
Esan sääasema
Terveisin Weather Underground - 2.75 mb

Alkuperäinen skripti  Jim McMurry - jmcmurry@mwt.net Sovitettu myös templatelle  Wim van der Kuil - Leuven-Template.eu

Laitteet joita käytämme:

Sääasema
Davis VP2

Sääasemaohjelma
Cumulus

Sääaseman tietokone
Asus EeePC

Palveluntarjoaja
Suncomet

Davis VP2

Cumulus

Asus EeePC

Suncomet